createdAt,value
2016-12-18T00:01:04.085Z,0
2016-12-18T00:02:13.294Z,0
2016-12-18T00:03:22.814Z,0
2016-12-18T00:04:32.001Z,0
2016-12-18T00:05:41.838Z,0
2016-12-18T00:06:51.341Z,0
2016-12-18T00:08:00.839Z,0
2016-12-18T00:09:10.328Z,0
2016-12-18T00:10:19.839Z,0
2016-12-18T00:11:29.627Z,0
2016-12-18T00:12:39.118Z,0
2016-12-18T00:13:48.909Z,0
2016-12-18T00:14:58.395Z,0
2016-12-18T00:16:08.202Z,0
2016-12-18T00:17:17.727Z,0
2016-12-18T00:18:27.558Z,0
2016-12-18T00:19:36.773Z,0
2016-12-18T00:20:46.663Z,0
2016-12-18T00:21:56.510Z,0
2016-12-18T00:23:05.988Z,0
2016-12-18T00:24:15.764Z,0
2016-12-18T00:25:25.272Z,0
2016-12-18T00:26:34.754Z,0
2016-12-18T00:27:44.606Z,0
2016-12-18T00:28:54.514Z,0
2016-12-18T00:30:04.337Z,0
2016-12-18T00:31:13.818Z,0
2016-12-18T00:32:23.613Z,0
2016-12-18T00:33:33.102Z,0
2016-12-18T00:34:43.145Z,0
2016-12-18T00:35:52.953Z,0
2016-12-18T00:37:02.434Z,0
2016-12-18T00:38:12.331Z,0
2016-12-18T00:39:21.809Z,0
2016-12-18T00:40:31.323Z,0
2016-12-18T00:41:40.850Z,0
2016-12-18T00:42:50.354Z,0
2016-12-18T00:44:00.210Z,0
2016-12-18T00:45:09.705Z,0
2016-12-18T00:46:19.496Z,0
2016-12-18T00:47:29.277Z,0
2016-12-18T00:48:38.794Z,0
2016-12-18T00:49:48.706Z,0
2016-12-18T00:50:58.194Z,0
2016-12-18T00:52:08.019Z,0
2016-12-18T00:53:17.796Z,0
2016-12-18T00:54:27.650Z,0
2016-12-18T00:55:37.128Z,0
2016-12-18T00:56:46.975Z,0
2016-12-18T00:57:56.469Z,0
2016-12-18T00:59:05.949Z,0
2016-12-18T01:00:15.125Z,0
2016-12-18T01:01:24.930Z,0
2016-12-18T01:02:34.812Z,0
2016-12-18T01:03:44.287Z,0
2016-12-18T01:04:53.876Z,0
2016-12-18T01:06:03.340Z,0
2016-12-18T01:07:12.911Z,0
2016-12-18T01:08:22.697Z,0
2016-12-18T01:09:32.185Z,0
2016-12-18T01:10:41.759Z,0
2016-12-18T01:11:51.578Z,0
2016-12-18T01:13:01.089Z,0
2016-12-18T01:14:10.965Z,0
2016-12-18T01:15:20.743Z,0
2016-12-18T01:16:29.903Z,0
2016-12-18T01:17:39.420Z,0
2016-12-18T01:18:49.206Z,0
2016-12-18T01:19:59.056Z,0
2016-12-18T01:21:07.914Z,0
2016-12-18T01:22:17.431Z,0
2016-12-18T01:23:26.935Z,0
2016-12-18T01:24:36.125Z,0
2016-12-18T01:25:45.623Z,0
2016-12-18T01:26:55.444Z,0
2016-12-18T01:28:05.266Z,0
2016-12-18T01:29:15.041Z,0
2016-12-18T01:30:24.864Z,0
2016-12-18T01:31:34.673Z,0
2016-12-18T01:32:44.458Z,0
2016-12-18T01:33:54.262Z,0
2016-12-18T01:35:03.755Z,0
2016-12-18T01:36:13.267Z,0
2016-12-18T01:37:22.780Z,0
2016-12-18T01:38:32.620Z,0
2016-12-18T01:39:42.130Z,0
2016-12-18T01:40:51.611Z,0
2016-12-18T01:42:01.095Z,0
2016-12-18T01:43:10.879Z,0
2016-12-18T01:44:20.667Z,0
2016-12-18T01:45:30.304Z,0
2016-12-18T01:46:40.157Z,0
2016-12-18T01:47:49.958Z,0
2016-12-18T01:48:59.744Z,0
2016-12-18T01:50:08.614Z,0
2016-12-18T01:51:18.474Z,0
2016-12-18T01:52:28.031Z,0
2016-12-18T01:53:37.546Z,0
2016-12-18T01:54:47.345Z,0
2016-12-18T01:55:57.134Z,0
2016-12-18T01:57:06.968Z,0
2016-12-18T01:58:16.131Z,0
2016-12-18T01:59:25.906Z,0
2016-12-18T02:00:35.689Z,0
2016-12-18T02:01:45.275Z,0
2016-12-18T02:02:54.773Z,0
2016-12-18T02:04:04.549Z,0
2016-12-18T02:05:14.363Z,0
2016-12-18T02:06:23.874Z,0
2016-12-18T02:07:33.390Z,0
2016-12-18T02:08:43.233Z,0
2016-12-18T02:09:53.031Z,0
2016-12-18T02:11:02.510Z,0
2016-12-18T02:12:12.021Z,0
2016-12-18T02:13:21.211Z,0
2016-12-18T02:14:30.714Z,0
2016-12-18T02:15:40.293Z,0
2016-12-18T02:16:49.784Z,0
2016-12-18T02:17:59.604Z,0
2016-12-18T02:19:09.384Z,0
2016-12-18T02:20:18.886Z,0
2016-12-18T02:21:28.423Z,0
2016-12-18T02:22:37.917Z,0
2016-12-18T02:23:47.768Z,0
2016-12-18T02:24:56.956Z,0
2016-12-18T02:26:06.474Z,0
2016-12-18T02:27:16.335Z,0
2016-12-18T02:28:25.937Z,0
2016-12-18T02:29:35.599Z,0
2016-12-18T02:30:45.184Z,0
2016-12-18T02:31:55.079Z,0
2016-12-18T02:33:04.600Z,0
2016-12-18T02:34:14.391Z,0
2016-12-18T02:35:23.922Z,0
2016-12-18T02:36:33.709Z,0
2016-12-18T02:37:43.220Z,0
2016-12-18T02:38:52.742Z,0
2016-12-18T02:40:02.221Z,0
2016-12-18T02:41:12.072Z,0
2016-12-18T02:42:22.008Z,0
2016-12-18T02:43:31.865Z,0
2016-12-18T02:44:41.639Z,0
2016-12-18T02:45:51.146Z,0
2016-12-18T02:47:00.112Z,0
2016-12-18T02:48:09.923Z,0
2016-12-18T02:49:19.809Z,0
2016-12-18T02:50:29.305Z,0
2016-12-18T02:51:38.850Z,0
2016-12-18T02:52:48.366Z,0
2016-12-18T02:53:58.187Z,0
2016-12-18T02:55:07.986Z,0
2016-12-18T02:56:17.155Z,0
2016-12-18T02:57:26.661Z,0
2016-12-18T02:58:36.144Z,0
2016-12-18T02:59:45.937Z,0
2016-12-18T03:00:55.421Z,0
2016-12-18T03:02:05.204Z,0
2016-12-18T03:03:14.123Z,0
2016-12-18T03:04:23.905Z,0
2016-12-18T03:05:33.743Z,0
2016-12-18T03:06:43.532Z,0
2016-12-18T03:07:53.093Z,0
2016-12-18T03:09:02.887Z,0
2016-12-18T03:10:12.977Z,0
2016-12-18T03:11:22.481Z,0
2016-12-18T03:12:32.401Z,0
2016-12-18T03:13:41.905Z,0
2016-12-18T03:14:51.522Z,0
2016-12-18T03:16:01.004Z,0
2016-12-18T03:17:10.817Z,0
2016-12-18T03:18:20.297Z,0
2016-12-18T03:19:29.785Z,0
2016-12-18T03:20:39.565Z,0
2016-12-18T03:21:48.722Z,0
2016-12-18T03:22:58.562Z,0
2016-12-18T03:24:08.139Z,0
2016-12-18T03:25:17.981Z,0
2016-12-18T03:26:27.811Z,0
2016-12-18T03:27:37.276Z,0
2016-12-18T03:28:46.758Z,0
2016-12-18T03:29:56.251Z,0
2016-12-18T03:31:05.420Z,0
2016-12-18T03:32:15.341Z,0
2016-12-18T03:33:25.160Z,0
2016-12-18T03:34:34.645Z,0
2016-12-18T03:35:44.143Z,0
2016-12-18T03:36:53.611Z,0
2016-12-18T03:38:02.789Z,0
2016-12-18T03:39:11.958Z,0
2016-12-18T03:40:21.474Z,0
2016-12-18T03:41:30.970Z,0
2016-12-18T03:42:40.761Z,0
2016-12-18T03:43:50.570Z,0
2016-12-18T03:45:00.046Z,0
2016-12-18T03:46:09.538Z,0
2016-12-18T03:47:19.345Z,0
2016-12-18T03:48:29.257Z,0
2016-12-18T03:49:39.044Z,0
2016-12-18T03:50:48.534Z,0
2016-12-18T03:51:58.372Z,0
2016-12-18T03:53:08.308Z,0
2016-12-18T03:54:17.797Z,0
2016-12-18T03:55:27.274Z,0
2016-12-18T03:56:37.142Z,0
2016-12-18T03:57:46.973Z,0
2016-12-18T03:58:56.174Z,0
2016-12-18T04:00:06.011Z,0
2016-12-18T04:01:15.168Z,0
2016-12-18T04:02:24.958Z,0
2016-12-18T04:03:34.894Z,0
2016-12-18T04:04:44.710Z,0
2016-12-18T04:05:54.493Z,0
2016-12-18T04:07:04.283Z,0
2016-12-18T04:08:13.752Z,0
2016-12-18T04:09:22.921Z,0
2016-12-18T04:10:32.416Z,0
2016-12-18T04:11:41.899Z,0
2016-12-18T04:12:51.787Z,0
2016-12-18T04:14:01.248Z,0
2016-12-18T04:15:10.750Z,0
2016-12-18T04:16:20.240Z,0
2016-12-18T04:17:30.038Z,0
2016-12-18T04:18:39.504Z,0
2016-12-18T04:19:49.379Z,0
2016-12-18T04:20:59.069Z,0
2016-12-18T04:22:08.923Z,0
2016-12-18T04:23:18.738Z,0
2016-12-18T04:24:28.247Z,0
2016-12-18T04:25:38.254Z,0
2016-12-18T04:26:47.483Z,0
2016-12-18T04:27:56.963Z,0
2016-12-18T04:29:06.773Z,0
2016-12-18T04:30:16.262Z,0
2016-12-18T04:31:26.057Z,0
2016-12-18T04:32:35.939Z,0
2016-12-18T04:33:45.429Z,0
2016-12-18T04:34:55.214Z,0
2016-12-18T04:36:04.688Z,0
2016-12-18T04:37:14.563Z,0
2016-12-18T04:38:24.063Z,0
2016-12-18T04:39:33.874Z,0
2016-12-18T04:40:43.434Z,0
2016-12-18T04:41:53.243Z,0
2016-12-18T04:43:03.036Z,0
2016-12-18T04:44:12.877Z,0
2016-12-18T04:45:22.659Z,0
2016-12-18T04:46:32.139Z,0
2016-12-18T04:47:41.973Z,0
2016-12-18T04:48:51.383Z,0
2016-12-18T04:50:01.276Z,0
2016-12-18T04:51:10.503Z,0
2016-12-18T04:52:20.292Z,0
2016-12-18T04:53:29.588Z,0
2016-12-18T04:54:39.366Z,0
2016-12-18T04:55:49.197Z,0
2016-12-18T04:56:59.005Z,0
2016-12-18T04:58:08.218Z,0
2016-12-18T04:59:18.056Z,0
2016-12-18T05:00:27.844Z,0
2016-12-18T05:01:37.015Z,0
2016-12-18T05:02:46.504Z,0
2016-12-18T05:03:55.704Z,0
2016-12-18T05:05:05.216Z,0
2016-12-18T05:06:14.701Z,0
2016-12-18T05:07:24.224Z,0
2016-12-18T05:08:33.724Z,0
2016-12-18T05:09:43.195Z,0
2016-12-18T05:10:53.000Z,0
2016-12-18T05:12:02.790Z,0
2016-12-18T05:13:12.573Z,0
2016-12-18T05:14:22.070Z,0
2016-12-18T05:15:31.304Z,0
2016-12-18T05:16:40.777Z,0
2016-12-18T05:17:50.259Z,0
2016-12-18T05:19:00.067Z,0
2016-12-18T05:20:10.073Z,0
2016-12-18T05:21:19.550Z,0
2016-12-18T05:22:29.338Z,0
2016-12-18T05:23:38.868Z,0
2016-12-18T05:24:48.677Z,0
2016-12-18T05:25:58.170Z,0
2016-12-18T05:27:07.666Z,0
2016-12-18T05:28:17.464Z,0
2016-12-18T05:29:27.355Z,0
2016-12-18T05:30:36.857Z,0
2016-12-18T05:31:46.442Z,0
2016-12-18T05:32:55.964Z,0
2016-12-18T05:34:05.671Z,0
2016-12-18T05:35:15.135Z,0
2016-12-18T05:36:24.613Z,0
2016-12-18T05:37:34.417Z,0
2016-12-18T05:38:43.934Z,0
2016-12-18T05:39:53.801Z,0
2016-12-18T05:41:03.722Z,0
2016-12-18T05:42:13.535Z,0
2016-12-18T05:43:23.340Z,0
2016-12-18T05:44:32.834Z,0
2016-12-18T05:45:42.305Z,0
2016-12-18T05:46:52.152Z,0
2016-12-18T05:48:01.772Z,0
2016-12-18T05:49:11.584Z,0
2016-12-18T05:50:21.477Z,0
2016-12-18T05:51:31.257Z,0
2016-12-18T05:52:40.797Z,0
2016-12-18T05:53:50.441Z,0
2016-12-18T05:54:59.647Z,0
2016-12-18T05:56:09.433Z,0
2016-12-18T05:57:18.949Z,0
2016-12-18T05:58:28.754Z,0
2016-12-18T05:59:38.566Z,0
2016-12-18T06:00:48.060Z,0
2016-12-18T06:01:57.855Z,0
2016-12-18T06:03:07.342Z,0
2016-12-18T06:04:16.500Z,0
2016-12-18T06:05:26.007Z,0
2016-12-18T06:06:35.799Z,0
2016-12-18T06:07:45.006Z,0
2016-12-18T06:08:54.892Z,0
2016-12-18T06:10:04.675Z,0
2016-12-18T06:11:14.464Z,0
2016-12-18T06:12:23.938Z,0
2016-12-18T06:13:33.131Z,0
2016-12-18T06:14:42.704Z,0
2016-12-18T06:15:52.510Z,0
2016-12-18T06:17:02.403Z,0
2016-12-18T06:18:11.896Z,0
2016-12-18T06:19:21.689Z,0
2016-12-18T06:20:30.860Z,0
2016-12-18T06:21:40.660Z,0
2016-12-18T06:22:50.470Z,0
2016-12-18T06:23:59.661Z,0
2016-12-18T06:25:09.478Z,0
2016-12-18T06:26:18.978Z,0
2016-12-18T06:27:28.499Z,0
2016-12-18T06:28:38.343Z,0
2016-12-18T06:29:48.191Z,0
2016-12-18T06:30:57.671Z,0
2016-12-18T06:32:07.161Z,0
2016-12-18T06:33:16.852Z,0
2016-12-18T06:34:26.633Z,0
2016-12-18T06:35:36.410Z,0
2016-12-18T06:36:46.220Z,0
2016-12-18T06:37:55.806Z,0
2016-12-18T06:39:05.672Z,0
2016-12-18T06:40:15.501Z,0
2016-12-18T06:41:25.299Z,0
2016-12-18T06:42:34.834Z,0
2016-12-18T06:43:44.672Z,0
2016-12-18T06:44:54.501Z,0
2016-12-18T06:46:04.109Z,0
2016-12-18T06:47:13.918Z,0
2016-12-18T06:48:23.424Z,0
2016-12-18T06:49:32.626Z,0
2016-12-18T06:50:42.144Z,0
2016-12-18T06:51:52.035Z,0
2016-12-18T06:53:01.206Z,0
2016-12-18T06:54:11.032Z,0
2016-12-18T06:55:20.510Z,0
2016-12-18T06:56:30.321Z,0
2016-12-18T06:57:40.122Z,0
2016-12-18T06:58:49.917Z,0
2016-12-18T06:59:59.741Z,0
2016-12-18T07:01:09.606Z,0
2016-12-18T07:02:19.416Z,0
2016-12-18T07:03:29.215Z,0
2016-12-18T07:04:39.002Z,0
2016-12-18T07:05:48.816Z,0
2016-12-18T07:06:58.000Z,5
2016-12-18T07:08:07.478Z,5
2016-12-18T07:09:16.652Z,5
2016-12-18T07:10:25.854Z,5
2016-12-18T07:11:35.328Z,5
2016-12-18T07:12:45.220Z,5
2016-12-18T07:13:55.172Z,5
2016-12-18T07:15:04.659Z,5
2016-12-18T07:16:13.857Z,5
2016-12-18T07:17:23.206Z,5
2016-12-18T07:18:32.688Z,5
2016-12-18T07:19:41.857Z,5
2016-12-18T07:20:51.375Z,5
2016-12-18T07:22:00.973Z,5
2016-12-18T07:23:10.577Z,5
2016-12-18T07:24:20.059Z,5
2016-12-18T07:25:29.252Z,5
2016-12-18T07:26:39.049Z,5
2016-12-18T07:27:48.276Z,10
2016-12-18T07:28:57.538Z,10
2016-12-18T07:30:07.138Z,10
2016-12-18T07:31:16.601Z,10
2016-12-18T07:32:26.390Z,10
2016-12-18T07:33:35.704Z,10
2016-12-18T07:34:45.487Z,10
2016-12-18T07:35:54.705Z,15
2016-12-18T07:37:04.255Z,15
2016-12-18T07:38:13.839Z,10
2016-12-18T07:39:23.305Z,10
2016-12-18T07:40:33.228Z,10
2016-12-18T07:41:42.700Z,10
2016-12-18T07:42:52.527Z,10
2016-12-18T07:44:01.991Z,10
2016-12-18T07:45:11.560Z,10
2016-12-18T07:46:21.334Z,10
2016-12-18T07:47:30.922Z,10
2016-12-18T07:48:40.710Z,10
2016-12-18T07:49:49.917Z,10
2016-12-18T07:50:59.413Z,10
2016-12-18T07:52:09.325Z,10
2016-12-18T07:53:19.223Z,10
2016-12-18T07:54:28.738Z,10
2016-12-18T07:55:38.517Z,10
2016-12-18T07:56:47.690Z,10
2016-12-18T07:57:57.473Z,10
2016-12-18T07:59:07.296Z,15
2016-12-18T08:00:17.083Z,25
2016-12-18T08:01:26.896Z,25
2016-12-18T08:02:36.685Z,35
2016-12-18T08:03:46.494Z,40
2016-12-18T08:04:56.310Z,50
2016-12-18T08:06:06.102Z,65
2016-12-18T08:07:15.142Z,70
2016-12-18T08:08:25.001Z,55
2016-12-18T08:09:34.787Z,60
2016-12-18T08:10:43.950Z,70
2016-12-18T08:11:53.129Z,75
2016-12-18T08:13:02.937Z,75
2016-12-18T08:14:12.829Z,75
2016-12-18T08:15:22.326Z,70
2016-12-18T08:16:32.147Z,75
2016-12-18T08:17:41.928Z,70
2016-12-18T08:18:51.421Z,75
2016-12-18T08:20:00.953Z,85
2016-12-18T08:21:10.156Z,95
2016-12-18T08:22:19.633Z,90
2016-12-18T08:23:29.138Z,90
2016-12-18T08:24:38.611Z,90
2016-12-18T08:25:48.393Z,90
2016-12-18T08:26:58.182Z,90
2016-12-18T08:28:07.961Z,80
2016-12-18T08:29:17.734Z,85
2016-12-18T08:30:27.540Z,85
2016-12-18T08:31:37.340Z,90
2016-12-18T08:32:46.513Z,85
2016-12-18T08:33:56.000Z,85
2016-12-18T08:35:05.710Z,70
2016-12-18T08:36:15.534Z,70
2016-12-18T08:37:25.075Z,75
2016-12-18T08:38:34.561Z,75
2016-12-18T08:39:44.083Z,75
2016-12-18T08:40:53.898Z,75
2016-12-18T08:42:03.681Z,75
2016-12-18T08:43:13.524Z,80
2016-12-18T08:44:23.381Z,85
2016-12-18T08:45:33.184Z,90
2016-12-18T08:46:42.665Z,95
2016-12-18T08:47:52.143Z,85
2016-12-18T08:49:01.564Z,90
2016-12-18T08:50:11.143Z,85
2016-12-18T08:51:20.615Z,100
2016-12-18T08:52:30.148Z,100
2016-12-18T08:53:39.631Z,100
2016-12-18T08:54:49.098Z,95
2016-12-18T08:55:58.937Z,90
2016-12-18T08:57:08.854Z,100
2016-12-18T08:58:18.712Z,100
2016-12-18T08:59:28.510Z,105
2016-12-18T09:00:20.797Z,105
2016-12-18T09:01:30.583Z,105
2016-12-18T09:02:40.383Z,105
2016-12-18T09:03:50.152Z,110
2016-12-18T09:04:59.649Z,95
2016-12-18T09:06:09.604Z,100
2016-12-18T09:07:19.092Z,95
2016-12-18T09:08:29.123Z,90
2016-12-18T09:09:39.003Z,85
2016-12-18T09:10:48.671Z,80
2016-12-18T09:11:58.138Z,85
2016-12-18T09:13:07.351Z,80
2016-12-18T09:14:17.169Z,90
2016-12-18T09:15:26.654Z,80
2016-12-18T09:16:36.289Z,90
2016-12-18T09:17:46.076Z,70
2016-12-18T09:18:55.575Z,80
2016-12-18T09:20:04.748Z,80
2016-12-18T09:21:14.279Z,95
2016-12-18T09:22:24.124Z,95
2016-12-18T09:23:33.671Z,95
2016-12-18T09:24:43.218Z,85
2016-12-18T09:25:52.996Z,95
2016-12-18T09:27:02.797Z,95
2016-12-18T09:28:18.859Z,80
2016-12-18T09:29:28.353Z,85
2016-12-18T09:30:37.538Z,70
2016-12-18T09:31:47.425Z,75
2016-12-18T09:32:57.317Z,75
2016-12-18T09:34:06.527Z,70
2016-12-18T09:35:16.461Z,75
2016-12-18T09:36:26.277Z,75
2016-12-18T09:37:36.077Z,85
2016-12-18T09:38:45.930Z,90
2016-12-18T09:39:55.722Z,95
2016-12-18T09:41:05.526Z,110
2016-12-18T09:42:15.306Z,125
2016-12-18T09:43:25.100Z,135
2016-12-18T09:44:34.577Z,165
2016-12-18T09:45:44.063Z,220
2016-12-18T09:46:53.865Z,260
2016-12-18T09:48:03.348Z,340
2016-12-18T09:49:12.871Z,365
2016-12-18T09:50:22.668Z,380
2016-12-18T09:51:32.476Z,345
2016-12-18T09:52:41.659Z,340
2016-12-18T09:53:51.168Z,255
2016-12-18T09:55:00.948Z,210
2016-12-18T09:56:10.751Z,230
2016-12-18T09:57:20.547Z,210
2016-12-18T09:58:30.113Z,190
2016-12-18T09:59:39.633Z,165
2016-12-18T10:00:48.827Z,155
2016-12-18T10:01:58.365Z,200
2016-12-18T10:03:07.861Z,190
2016-12-18T10:04:17.084Z,180
2016-12-18T10:05:26.899Z,235
2016-12-18T10:06:36.372Z,195
2016-12-18T10:07:46.538Z,180
2016-12-18T10:08:56.346Z,145
2016-12-18T10:10:06.172Z,125
2016-12-18T10:11:16.004Z,135
2016-12-18T10:12:25.494Z,165
2016-12-18T10:13:35.294Z,165
2016-12-18T10:14:45.096Z,170
2016-12-18T10:15:54.331Z,200
2016-12-18T10:17:03.521Z,210
2016-12-18T10:18:13.012Z,220
2016-12-18T10:19:22.409Z,220
2016-12-18T10:20:31.352Z,190
2016-12-18T10:21:41.197Z,190
2016-12-18T10:22:50.673Z,220
2016-12-18T10:24:00.468Z,245
2016-12-18T10:25:10.260Z,285
2016-12-18T10:26:19.737Z,260
2016-12-18T10:27:29.333Z,200
2016-12-18T10:28:38.887Z,190
2016-12-18T10:29:48.437Z,185
2016-12-18T10:30:58.216Z,210
2016-12-18T10:32:07.712Z,210
2016-12-18T10:33:17.588Z,240
2016-12-18T10:34:27.122Z,355
2016-12-18T10:35:36.625Z,410
2016-12-18T10:36:46.097Z,310
2016-12-18T10:37:55.937Z,245
2016-12-18T10:39:05.728Z,170
2016-12-18T10:40:15.245Z,180
2016-12-18T10:41:25.066Z,190
2016-12-18T10:42:34.546Z,185
2016-12-18T10:44:15.963Z,190
2016-12-18T10:45:25.740Z,185
2016-12-18T10:46:35.551Z,155
2016-12-18T10:47:45.056Z,160
2016-12-18T10:48:54.543Z,140
2016-12-18T10:50:04.353Z,145
2016-12-18T10:51:14.135Z,140
2016-12-18T10:52:23.914Z,140
2016-12-18T10:53:33.129Z,165
2016-12-18T10:54:42.909Z,125
2016-12-18T10:55:52.731Z,110
2016-12-18T10:57:02.520Z,120
2016-12-18T10:58:12.342Z,170
2016-12-18T10:59:21.844Z,135
2016-12-18T11:00:31.641Z,115
2016-12-18T11:01:41.108Z,110
2016-12-18T11:02:50.632Z,105
2016-12-18T11:04:00.187Z,105
2016-12-18T11:05:09.687Z,105
2016-12-18T11:06:19.543Z,105
2016-12-18T11:07:29.049Z,125
2016-12-18T11:08:38.533Z,135
2016-12-18T11:09:47.703Z,130
2016-12-18T11:10:57.521Z,130
2016-12-18T11:12:07.553Z,150
2016-12-18T11:13:17.262Z,140
2016-12-18T11:14:26.764Z,160
2016-12-18T11:15:36.259Z,155
2016-12-18T11:16:45.753Z,165
2016-12-18T11:17:55.546Z,160
2016-12-18T11:19:05.043Z,125
2016-12-18T11:20:14.544Z,110
2016-12-18T11:21:24.391Z,105
2016-12-18T11:22:33.896Z,110
2016-12-18T11:23:43.743Z,140
2016-12-18T11:24:53.586Z,185
2016-12-18T11:26:03.099Z,180
2016-12-18T11:27:12.593Z,165
2016-12-18T11:28:22.461Z,165
2016-12-18T11:29:32.015Z,150
2016-12-18T11:30:42.088Z,120
2016-12-18T11:31:51.891Z,105
2016-12-18T11:33:01.365Z,135
2016-12-18T11:34:11.168Z,170
2016-12-18T11:35:20.994Z,185
2016-12-18T11:36:30.492Z,170
2016-12-18T11:37:39.654Z,135
2016-12-18T11:38:49.161Z,125
2016-12-18T11:39:58.657Z,110
2016-12-18T11:41:08.556Z,105
2016-12-18T11:42:17.761Z,110
2016-12-18T11:43:26.942Z,100
2016-12-18T11:44:36.134Z,110
2016-12-18T11:45:45.945Z,115
2016-12-18T11:46:55.118Z,115
2016-12-18T11:48:04.943Z,140
2016-12-18T11:49:14.774Z,145
2016-12-18T11:50:24.286Z,165
2016-12-18T11:51:34.299Z,145
2016-12-18T11:52:43.472Z,125
2016-12-18T11:53:53.257Z,95
2016-12-18T11:55:02.752Z,95
2016-12-18T11:56:12.282Z,105
2016-12-18T11:57:21.785Z,105
2016-12-18T11:58:30.949Z,110
2016-12-18T11:59:40.454Z,130
2016-12-18T12:00:50.119Z,110
2016-12-18T12:01:59.598Z,100
2016-12-18T12:03:09.574Z,95
2016-12-18T12:04:19.366Z,95
2016-12-18T12:05:28.918Z,95
2016-12-18T12:06:38.416Z,100
2016-12-18T12:07:48.218Z,90
2016-12-18T12:08:58.024Z,75
2016-12-18T12:10:07.906Z,70
2016-12-18T12:11:17.704Z,75
2016-12-18T12:12:27.505Z,80
2016-12-18T12:13:37.354Z,90
2016-12-18T12:14:47.252Z,105
2016-12-18T12:15:56.778Z,110
2016-12-18T12:17:06.601Z,105
2016-12-18T12:18:16.261Z,135
2016-12-18T12:19:26.078Z,135
2016-12-18T12:20:35.892Z,140
2016-12-18T12:21:45.366Z,170
2016-12-18T12:22:55.181Z,185
2016-12-18T12:24:04.668Z,160
2016-12-18T12:25:14.455Z,180
2016-12-18T12:26:23.960Z,170
2016-12-18T12:27:33.324Z,210
2016-12-18T12:28:43.110Z,225
2016-12-18T12:29:52.653Z,255
2016-12-18T12:31:01.918Z,260
2016-12-18T12:32:11.716Z,295
2016-12-18T12:33:21.250Z,285
2016-12-18T12:34:30.773Z,320
2016-12-18T12:35:40.555Z,275
2016-12-18T12:36:50.334Z,260
2016-12-18T12:37:59.841Z,240
2016-12-18T12:39:09.326Z,180
2016-12-18T12:40:18.816Z,185
2016-12-18T12:41:28.610Z,180
2016-12-18T12:42:38.409Z,210
2016-12-18T12:43:47.890Z,230
2016-12-18T12:44:57.405Z,190
2016-12-18T12:46:07.386Z,235
2016-12-18T12:47:17.117Z,295
2016-12-18T12:48:26.948Z,370
2016-12-18T12:49:36.786Z,360
2016-12-18T12:50:46.667Z,345
2016-12-18T12:51:56.475Z,325
2016-12-18T12:53:06.445Z,315
2016-12-18T12:54:16.245Z,265
2016-12-18T12:55:25.719Z,230
2016-12-18T12:56:35.041Z,190
2016-12-18T12:57:44.532Z,160
2016-12-18T12:58:54.364Z,120
2016-12-18T13:00:04.232Z,140
2016-12-18T13:01:13.793Z,130
2016-12-18T13:02:23.302Z,130
2016-12-18T13:03:33.115Z,140
2016-12-18T13:04:42.946Z,120
2016-12-18T13:05:52.751Z,100
2016-12-18T13:07:01.965Z,110
2016-12-18T13:08:11.172Z,115
2016-12-18T13:09:20.715Z,100
2016-12-18T13:10:30.495Z,80
2016-12-18T13:11:39.999Z,70
2016-12-18T13:12:49.854Z,70
2016-12-18T13:13:59.071Z,75
2016-12-18T13:15:08.872Z,55
2016-12-18T13:16:18.687Z,60
2016-12-18T13:17:28.169Z,60
2016-12-18T13:18:37.696Z,65
2016-12-18T13:19:47.596Z,70
2016-12-18T13:20:57.097Z,65
2016-12-18T13:22:06.929Z,75
2016-12-18T13:23:16.761Z,85
2016-12-18T13:24:26.586Z,75
2016-12-18T13:25:36.076Z,70
2016-12-18T13:26:45.606Z,70
2016-12-18T13:27:55.414Z,75
2016-12-18T13:29:04.903Z,80
2016-12-18T13:30:14.476Z,65
2016-12-18T13:31:24.371Z,65
2016-12-18T13:32:33.864Z,75
2016-12-18T13:33:43.689Z,60
2016-12-18T13:34:53.365Z,60
2016-12-18T13:36:02.884Z,65
2016-12-18T13:37:12.830Z,80
2016-12-18T13:38:22.338Z,85
2016-12-18T13:39:32.172Z,60
2016-12-18T13:40:42.056Z,80
2016-12-18T13:41:51.552Z,100
2016-12-18T13:43:01.038Z,110
2016-12-18T13:44:10.864Z,100
2016-12-18T13:45:20.415Z,105
2016-12-18T13:46:29.289Z,115
2016-12-18T13:47:39.197Z,110
2016-12-18T13:48:48.779Z,95
2016-12-18T13:49:58.317Z,95
2016-12-18T13:51:08.151Z,80
2016-12-18T13:52:18.015Z,75
2016-12-18T13:53:27.847Z,80
2016-12-18T13:54:37.707Z,75
2016-12-18T13:55:47.575Z,95
2016-12-18T13:56:56.852Z,95
2016-12-18T13:58:06.368Z,105
2016-12-18T13:59:16.212Z,100
2016-12-18T14:00:26.052Z,70
2016-12-18T14:01:35.577Z,40
2016-12-18T14:02:45.436Z,30
2016-12-18T14:03:55.046Z,45
2016-12-18T14:05:04.978Z,65
2016-12-18T14:06:14.531Z,70
2016-12-18T14:07:24.318Z,70
2016-12-18T14:08:33.896Z,75
2016-12-18T14:09:43.694Z,70
2016-12-18T14:10:53.009Z,75
2016-12-18T14:12:02.811Z,80
2016-12-18T14:13:12.630Z,80
2016-12-18T14:14:22.475Z,80
2016-12-18T14:15:32.319Z,80
2016-12-18T14:16:42.163Z,80
2016-12-18T14:17:52.000Z,75
2016-12-18T14:19:01.974Z,75
2016-12-18T14:20:11.854Z,85
2016-12-18T14:21:21.051Z,75
2016-12-18T14:22:30.862Z,70
2016-12-18T14:23:40.344Z,70
2016-12-18T14:24:50.186Z,65
2016-12-18T14:25:59.810Z,70
2016-12-18T14:27:09.283Z,55
2016-12-18T14:28:18.634Z,50
2016-12-18T14:29:28.122Z,40
2016-12-18T14:30:37.912Z,25
2016-12-18T14:31:47.739Z,20
2016-12-18T14:32:57.558Z,20
2016-12-18T14:34:06.753Z,30
2016-12-18T14:35:16.553Z,35
2016-12-18T14:36:26.410Z,40
2016-12-18T14:37:35.921Z,40
2016-12-18T14:38:45.739Z,35
2016-12-18T14:39:55.581Z,30
2016-12-18T14:41:05.398Z,30
2016-12-18T14:42:15.050Z,35
2016-12-18T14:43:25.091Z,35
2016-12-18T14:44:34.613Z,30
2016-12-18T14:45:44.431Z,25
2016-12-18T14:46:53.960Z,30
2016-12-18T14:48:03.488Z,25
2016-12-18T14:49:13.273Z,25
2016-12-18T14:50:23.070Z,20
2016-12-18T14:51:32.588Z,20
2016-12-18T14:52:42.387Z,20
2016-12-18T14:53:51.891Z,20
2016-12-18T14:55:01.077Z,15
2016-12-18T14:56:10.663Z,15
2016-12-18T14:57:20.477Z,15
2016-12-18T14:58:30.298Z,15
2016-12-18T14:59:39.813Z,15
2016-12-18T15:00:49.346Z,15
2016-12-18T15:01:58.871Z,15
2016-12-18T15:03:08.701Z,10
2016-12-18T15:04:17.889Z,10
2016-12-18T15:05:27.296Z,10
2016-12-18T15:06:37.140Z,10
2016-12-18T15:07:46.678Z,10
2016-12-18T15:08:56.550Z,10
2016-12-18T15:10:06.356Z,5
2016-12-18T15:11:15.216Z,5
2016-12-18T15:12:25.109Z,5
2016-12-18T15:13:34.918Z,5
2016-12-18T15:14:44.762Z,5
2016-12-18T15:15:54.355Z,5
2016-12-18T15:17:04.186Z,0
2016-12-18T15:18:13.993Z,0
2016-12-18T15:19:23.491Z,0
2016-12-18T15:20:32.995Z,0
2016-12-18T15:21:42.192Z,0
2016-12-18T15:22:51.689Z,0
2016-12-18T15:24:01.485Z,0
2016-12-18T15:25:11.301Z,0
2016-12-18T15:26:21.148Z,0
2016-12-18T15:27:30.361Z,0
2016-12-18T15:28:40.171Z,0
2016-12-18T15:29:49.746Z,0
2016-12-18T15:30:59.646Z,0
2016-12-18T15:32:09.516Z,0
2016-12-18T15:33:19.041Z,0
2016-12-18T15:34:28.545Z,0
2016-12-18T15:35:38.043Z,0
2016-12-18T15:36:47.844Z,0
2016-12-18T15:37:57.339Z,0
2016-12-18T15:39:06.842Z,0
2016-12-18T15:40:16.429Z,0
2016-12-18T15:41:25.943Z,0
2016-12-18T15:42:35.776Z,0
2016-12-18T15:43:45.297Z,0
2016-12-18T15:44:58.439Z,0
2016-12-18T15:46:08.303Z,0
2016-12-18T15:47:18.211Z,0
2016-12-18T15:48:28.045Z,0
2016-12-18T15:49:37.566Z,0
2016-12-18T15:50:47.066Z,0
2016-12-18T15:51:56.307Z,0
2016-12-18T15:53:05.814Z,0
2016-12-18T15:54:15.045Z,0
2016-12-18T15:55:24.888Z,0
2016-12-18T15:56:34.978Z,0
2016-12-18T15:57:44.972Z,0
2016-12-18T15:58:54.860Z,0
2016-12-18T16:00:04.391Z,0
2016-12-18T16:01:14.210Z,0
2016-12-18T16:02:23.757Z,0
2016-12-18T16:03:33.621Z,0
2016-12-18T16:04:43.438Z,0
2016-12-18T16:05:52.670Z,0
2016-12-18T16:07:02.506Z,0
2016-12-18T16:08:12.373Z,0
2016-12-18T16:09:22.230Z,0
2016-12-18T16:10:31.769Z,0
2016-12-18T16:11:41.658Z,0
2016-12-18T16:12:51.211Z,0
2016-12-18T16:14:00.728Z,0
2016-12-18T16:15:10.636Z,0
2016-12-18T16:16:20.155Z,0
2016-12-18T16:17:29.670Z,0
2016-12-18T16:18:39.174Z,0
2016-12-18T16:19:48.748Z,0
2016-12-18T16:20:58.314Z,0
2016-12-18T16:22:07.843Z,0
2016-12-18T16:23:17.708Z,0
2016-12-18T16:24:27.227Z,0
2016-12-18T16:25:37.282Z,0
2016-12-18T16:26:46.875Z,0
2016-12-18T16:27:56.721Z,0
2016-12-18T16:29:06.265Z,0
2016-12-18T16:30:16.128Z,0
2016-12-18T16:31:25.638Z,0
2016-12-18T16:32:35.221Z,0
2016-12-18T16:33:45.072Z,0
2016-12-18T16:34:54.576Z,0
2016-12-18T16:36:04.087Z,0
2016-12-18T16:37:13.647Z,0
2016-12-18T16:38:23.241Z,0
2016-12-18T16:39:33.089Z,0
2016-12-18T16:40:42.594Z,0
2016-12-18T16:41:52.439Z,0
2016-12-18T16:43:02.308Z,0
2016-12-18T16:44:12.116Z,0
2016-12-18T16:45:21.935Z,0